createdAt,value
2023-05-14T00:01:05.486Z,98162.40
2023-05-14T00:03:33.728Z,98158.40
2023-05-14T00:06:01.948Z,98148.65
2023-05-14T00:08:30.013Z,98146.03
2023-05-14T00:10:59.113Z,98145.86
2023-05-14T00:13:27.145Z,98150.21
2023-05-14T00:15:55.255Z,98154.91
2023-05-14T00:18:23.381Z,98151.08
2023-05-14T00:20:54.973Z,98150.73
2023-05-14T00:23:24.309Z,98152.48
2023-05-14T00:25:52.460Z,98148.83
2023-05-14T00:28:21.289Z,98149.36
2023-05-14T00:30:49.836Z,98142.92
2023-05-14T00:33:18.204Z,98142.05
2023-05-14T00:35:46.325Z,98142.92
2023-05-14T00:38:17.813Z,98139.95
2023-05-14T00:40:51.383Z,98145.88
2023-05-14T00:43:21.299Z,98146.08
2023-05-14T00:45:54.589Z,98143.13
2023-05-14T00:48:23.568Z,98142.42
2023-05-14T00:50:52.195Z,98140.02
2023-05-14T00:53:21.140Z,98140.90
2023-05-14T00:55:50.510Z,98136.05
2023-05-14T00:58:19.734Z,98133.27
2023-05-14T01:00:48.161Z,98131.91
2023-05-14T01:03:16.633Z,98135.92
2023-05-14T01:06:01.157Z,98141.85
2023-05-14T01:08:32.422Z,98144.30
2023-05-14T01:11:06.735Z,98142.38
2023-05-14T01:13:48.805Z,98143.08
2023-05-14T01:16:20.367Z,98142.05
2023-05-14T01:18:52.198Z,98147.09
2023-05-14T01:21:26.135Z,98151.44
2023-05-14T01:23:54.653Z,98155.09
2023-05-14T01:26:23.228Z,98156.14
2023-05-14T01:28:53.284Z,98151.44
2023-05-14T01:31:28.145Z,98148.48
2023-05-14T01:33:59.411Z,98143.44
2023-05-14T01:36:30.147Z,98143.61
2023-05-14T01:38:59.137Z,98142.39
2023-05-14T01:41:28.414Z,98141.52
2023-05-14T01:43:57.559Z,98144.65
2023-05-14T01:46:25.968Z,98138.23
2023-05-14T01:48:54.496Z,98139.43
2023-05-14T01:51:22.887Z,98135.79
2023-05-14T01:53:51.264Z,98137.02
2023-05-14T01:56:22.061Z,98136.66
2023-05-14T01:58:50.370Z,98136.65
2023-05-14T02:01:18.756Z,98130.57
2023-05-14T02:03:46.918Z,98131.60
2023-05-14T02:06:14.995Z,98127.95
2023-05-14T02:08:43.239Z,98129.69
2023-05-14T02:11:11.832Z,98127.26
2023-05-14T02:13:40.398Z,98131.60
2023-05-14T02:16:09.180Z,98128.12
2023-05-14T02:18:37.321Z,98124.30
2023-05-14T02:21:05.548Z,98122.55
2023-05-14T02:23:40.985Z,98125.86
2023-05-14T02:26:12.540Z,98123.61
2023-05-14T02:28:40.809Z,98122.56
2023-05-14T02:31:08.988Z,98119.77
2023-05-14T02:33:37.138Z,98121.34
2023-05-14T02:36:06.298Z,98122.39
2023-05-14T02:38:34.717Z,98123.60
2023-05-14T02:41:02.855Z,98125.35
2023-05-14T02:43:30.876Z,98128.48
2023-05-14T02:45:58.957Z,98133.52
2023-05-14T02:48:26.996Z,98132.64
2023-05-14T02:50:55.031Z,98131.77
2023-05-14T02:53:23.209Z,98130.73
2023-05-14T02:55:51.311Z,98131.42
2023-05-14T02:58:19.423Z,98126.90
2023-05-14T03:00:54.074Z,98120.98
2023-05-14T03:03:22.754Z,98121.86
2023-05-14T03:05:51.299Z,98121.35
2023-05-14T03:08:19.804Z,98122.23
2023-05-14T03:10:48.147Z,98124.67
2023-05-14T03:13:18.006Z,98124.61
2023-05-14T03:15:47.197Z,98122.45
2023-05-14T03:18:15.526Z,98118.44
2023-05-14T03:20:44.000Z,98116.54
2023-05-14T03:23:13.383Z,98119.33
2023-05-14T03:25:41.660Z,98122.46
2023-05-14T03:28:10.048Z,98125.60
2023-05-14T03:30:38.489Z,98125.77
2023-05-14T03:33:07.139Z,98126.10
2023-05-14T03:35:35.728Z,98126.42
2023-05-14T03:38:04.381Z,98121.88
2023-05-14T03:40:33.024Z,98116.13
2023-05-14T03:43:01.598Z,98117.70
2023-05-14T03:45:30.829Z,98115.24
2023-05-14T03:48:00.413Z,98113.14
2023-05-14T03:50:28.800Z,98108.27
2023-05-14T03:52:56.805Z,98113.16
2023-05-14T03:55:24.874Z,98111.79
2023-05-14T03:57:53.064Z,98112.48
2023-05-14T04:00:21.811Z,98121.55
2023-05-14T04:02:50.008Z,98118.58
2023-05-14T04:05:18.918Z,98120.50
2023-05-14T04:07:47.575Z,98119.42
2023-05-14T04:10:15.930Z,98122.16
2023-05-14T04:12:44.431Z,98121.74
2023-05-14T04:15:13.042Z,98123.44
2023-05-14T04:17:41.622Z,98126.34
2023-05-14T04:20:10.667Z,98126.67
2023-05-14T04:22:38.624Z,98125.06
2023-05-14T04:25:07.104Z,98126.40
2023-05-14T04:27:35.402Z,98129.66
2023-05-14T04:30:03.883Z,98128.93
2023-05-14T04:32:31.855Z,98128.88
2023-05-14T04:35:00.007Z,98125.70
2023-05-14T04:37:28.080Z,98124.63
2023-05-14T04:39:56.068Z,98118.61
2023-05-14T04:42:24.330Z,98121.02
2023-05-14T04:44:52.604Z,98120.11
2023-05-14T04:47:21.599Z,98121.86
2023-05-14T04:49:50.108Z,98121.45
2023-05-14T04:52:18.398Z,98119.11
2023-05-14T04:54:46.617Z,98119.08
2023-05-14T04:57:14.890Z,98118.88
2023-05-14T04:59:43.236Z,98116.36
2023-05-14T05:02:11.817Z,98109.73
2023-05-14T05:04:40.756Z,98106.27
2023-05-14T05:07:09.101Z,98101.95
2023-05-14T05:09:37.491Z,98099.75
2023-05-14T05:12:06.888Z,98095.75
2023-05-14T05:14:35.076Z,98098.66
2023-05-14T05:17:03.108Z,98092.90
2023-05-14T05:19:42.570Z,98091.27
2023-05-14T05:22:12.122Z,98086.95
2023-05-14T05:24:40.188Z,98079.28
2023-05-14T05:27:08.753Z,98074.98
2023-05-14T05:29:36.954Z,98074.15
2023-05-14T05:32:06.042Z,98074.44
2023-05-14T05:34:35.116Z,98068.27
2023-05-14T05:37:03.458Z,98064.27
2023-05-14T05:39:35.196Z,98058.52
2023-05-14T05:42:04.042Z,98053.15
2023-05-14T05:44:32.138Z,98052.55
2023-05-14T05:47:00.548Z,98051.43
2023-05-14T05:49:28.854Z,98045.44
2023-05-14T05:51:57.159Z,98045.17
2023-05-14T05:54:25.590Z,98040.06
2023-05-14T05:56:53.617Z,98039.34
2023-05-14T05:59:22.039Z,98041.05
2023-05-14T06:01:50.198Z,98031.73
2023-05-14T06:04:18.226Z,98022.61
2023-05-14T06:06:46.389Z,98022.66
2023-05-14T06:09:14.652Z,98025.63
2023-05-14T06:11:42.958Z,98024.08
2023-05-14T06:14:11.030Z,98028.25
2023-05-14T06:16:39.139Z,98026.13
2023-05-14T06:19:08.637Z,98025.60
2023-05-14T06:21:36.766Z,98024.13
2023-05-14T06:24:05.583Z,98025.39
2023-05-14T06:26:34.437Z,98025.30
2023-05-14T06:29:02.626Z,98022.47
2023-05-14T06:31:30.818Z,98022.42
2023-05-14T06:33:58.891Z,98020.43
2023-05-14T06:36:26.805Z,98017.29
2023-05-14T06:38:55.072Z,98010.71
2023-05-14T06:41:23.193Z,98013.18
2023-05-14T06:43:51.368Z,98014.08
2023-05-14T06:46:19.465Z,98014.13
2023-05-14T06:48:47.637Z,98010.25
2023-05-14T06:51:15.927Z,98006.31
2023-05-14T06:53:44.032Z,98007.97
2023-05-14T06:56:13.749Z,98002.52
2023-05-14T06:58:41.831Z,98000.22
2023-05-14T07:01:10.834Z,97994.15
2023-05-14T07:03:39.421Z,97992.54
2023-05-14T07:06:07.743Z,97988.04
2023-05-14T07:08:36.228Z,97987.98
2023-05-14T07:11:04.450Z,97988.17
2023-05-14T07:13:32.776Z,97985.52
2023-05-14T07:16:01.111Z,97977.26
2023-05-14T07:18:29.512Z,97972.23
2023-05-14T07:20:57.726Z,97970.55
2023-05-14T07:23:25.960Z,97970.48
2023-05-14T07:25:54.385Z,97966.22
2023-05-14T07:28:22.456Z,97962.48
2023-05-14T07:30:50.742Z,97962.27
2023-05-14T07:33:18.764Z,97963.61
2023-05-14T07:35:47.489Z,97967.48
2023-05-14T07:38:16.877Z,97969.84
2023-05-14T07:40:45.306Z,97970.58
2023-05-14T07:43:14.785Z,97967.06
2023-05-14T07:45:43.252Z,97969.19
2023-05-14T07:48:12.165Z,97971.90
2023-05-14T07:50:41.036Z,97975.73
2023-05-14T07:53:09.453Z,97971.98
2023-05-14T07:55:37.671Z,97971.89
2023-05-14T07:58:06.810Z,97972.70
2023-05-14T08:00:35.098Z,97966.22
2023-05-14T08:03:03.904Z,97966.91
2023-05-14T08:05:33.177Z,97965.70
2023-05-14T08:08:01.849Z,97964.63
2023-05-14T08:10:30.485Z,97966.28
2023-05-14T08:12:59.051Z,97963.02
2023-05-14T08:15:28.022Z,97958.70
2023-05-14T08:17:56.544Z,97954.69
2023-05-14T08:20:25.185Z,97949.90
2023-05-14T08:22:53.716Z,97943.52
2023-05-14T08:25:21.817Z,97933.10
2023-05-14T08:27:50.724Z,97930.16
2023-05-14T08:30:18.861Z,97924.98
2023-05-14T08:32:47.075Z,97918.06
2023-05-14T08:35:15.364Z,97916.43
2023-05-14T08:37:43.609Z,97918.24
2023-05-14T08:40:12.771Z,97917.80
2023-05-14T08:42:41.737Z,97923.64
2023-05-14T08:45:21.416Z,97922.77
2023-05-14T08:47:52.095Z,97921.17
2023-05-14T08:50:23.015Z,97919.14
2023-05-14T08:52:53.175Z,97910.14
2023-05-14T08:55:21.411Z,97900.75
2023-05-14T08:57:49.542Z,97896.91
2023-05-14T09:00:18.911Z,97895.06
2023-05-14T09:02:48.729Z,97893.86
2023-05-14T09:05:19.164Z,97893.72
2023-05-14T09:07:47.235Z,97893.12
2023-05-14T09:10:16.327Z,97891.64
2023-05-14T09:12:44.863Z,97887.50
2023-05-14T09:15:13.258Z,97888.19
2023-05-14T09:17:41.585Z,97885.48
2023-05-14T09:20:13.011Z,97885.02
2023-05-14T09:22:41.322Z,97883.19
2023-05-14T09:25:12.530Z,97883.83
2023-05-14T09:27:41.113Z,97879.88
2023-05-14T09:30:10.766Z,97874.86
2023-05-14T09:32:44.375Z,97869.84
2023-05-14T09:35:24.963Z,97870.21
2023-05-14T09:37:55.220Z,97868.36
2023-05-14T09:40:24.660Z,97866.11
2023-05-14T09:42:57.748Z,97869.31
2023-05-14T09:45:26.293Z,97866.11
2023-05-14T09:47:54.679Z,97863.69
2023-05-14T09:50:23.331Z,97861.13
2023-05-14T09:52:51.829Z,97862.84
2023-05-14T09:55:21.096Z,97861.87
2023-05-14T09:57:50.209Z,97858.67
2023-05-14T10:00:18.861Z,97858.20
2023-05-14T10:02:48.141Z,97857.02
2023-05-14T10:05:16.879Z,97851.84
2023-05-14T10:07:49.474Z,97847.09
2023-05-14T10:10:20.473Z,97841.32
2023-05-14T10:13:04.869Z,97837.25
2023-05-14T10:15:49.577Z,97831.98
2023-05-14T10:18:24.414Z,97826.17
2023-05-14T10:21:04.322Z,97828.50
2023-05-14T10:23:33.568Z,97817.48
2023-05-14T10:26:02.135Z,97814.33
2023-05-14T10:28:32.328Z,97816.29
2023-05-14T10:31:01.127Z,97809.43
2023-05-14T10:33:29.440Z,97803.92
2023-05-14T10:36:02.355Z,97796.96
2023-05-14T10:38:33.758Z,97796.30
2023-05-14T10:41:13.126Z,97793.49
2023-05-14T10:43:43.032Z,97797.20
2023-05-14T10:46:13.280Z,97792.36
2023-05-14T10:48:43.566Z,97784.23
2023-05-14T10:51:13.195Z,97782.11
2023-05-14T10:53:44.661Z,97780.33
2023-05-14T10:56:15.131Z,97777.48
2023-05-14T10:58:45.919Z,97773.16
2023-05-14T11:01:14.623Z,97768.98
2023-05-14T11:03:46.518Z,97766.17
2023-05-14T11:06:16.440Z,97760.59
2023-05-14T11:08:46.768Z,97756.20
2023-05-14T11:11:15.162Z,97756.85
2023-05-14T11:13:44.974Z,97754.79
2023-05-14T11:16:22.638Z,97757.00
2023-05-14T11:19:04.591Z,97754.75
2023-05-14T11:21:34.081Z,97752.38
2023-05-14T11:24:02.459Z,97753.06
2023-05-14T11:26:32.262Z,97750.48
2023-05-14T11:29:01.637Z,97748.45
2023-05-14T11:31:31.858Z,97746.02
2023-05-14T11:34:01.205Z,97742.80
2023-05-14T11:36:29.758Z,97739.52
2023-05-14T11:38:57.980Z,97735.65
2023-05-14T11:41:28.164Z,97744.81
2023-05-14T11:43:56.324Z,97744.08
2023-05-14T11:46:26.186Z,97738.48
2023-05-14T11:48:54.329Z,97740.27
2023-05-14T11:51:23.512Z,97738.17
2023-05-14T11:53:51.736Z,97732.41
2023-05-14T11:56:21.945Z,97735.19
2023-05-14T11:58:56.287Z,97736.49
2023-05-14T12:01:25.430Z,97738.95
2023-05-14T12:03:53.659Z,97737.66
2023-05-14T12:06:22.113Z,97735.36
2023-05-14T12:08:51.194Z,97730.16
2023-05-14T12:11:22.658Z,97727.30
2023-05-14T12:13:53.039Z,97723.52
2023-05-14T12:16:21.763Z,97723.65
2023-05-14T12:18:49.970Z,97722.73
2023-05-14T12:21:19.767Z,97721.33
2023-05-14T12:23:56.751Z,97724.27
2023-05-14T12:26:27.425Z,97723.95
2023-05-14T12:29:03.766Z,97723.66
2023-05-14T12:31:32.673Z,97726.16
2023-05-14T12:34:01.426Z,97725.23
2023-05-14T12:36:32.735Z,97725.96
2023-05-14T12:39:03.801Z,97727.00
2023-05-14T12:41:32.403Z,97723.77
2023-05-14T12:44:01.320Z,97724.92
2023-05-14T12:46:30.520Z,97721.80
2023-05-14T12:48:58.882Z,97719.48
2023-05-14T12:51:27.840Z,97717.09
2023-05-14T12:53:56.200Z,97711.90
2023-05-14T12:56:28.618Z,97707.27
2023-05-14T12:58:57.305Z,97708.84
2023-05-14T13:01:25.777Z,97714.90
2023-05-14T13:03:56.966Z,97722.11
2023-05-14T13:06:26.098Z,97721.58
2023-05-14T13:08:55.051Z,97719.36
2023-05-14T13:11:24.077Z,97719.55
2023-05-14T13:13:52.328Z,97716.67
2023-05-14T13:16:20.963Z,97721.09
2023-05-14T13:18:49.407Z,97718.81
2023-05-14T13:21:17.935Z,97719.96
2023-05-14T13:23:46.564Z,97718.08
2023-05-14T13:26:15.135Z,97710.14
2023-05-14T13:28:43.447Z,97703.50
2023-05-14T13:31:14.868Z,97705.90
2023-05-14T13:33:44.840Z,97698.87
2023-05-14T13:36:15.038Z,97689.73
2023-05-14T13:38:43.469Z,97685.31
2023-05-14T13:41:12.286Z,97678.55
2023-05-14T13:43:40.742Z,97668.20
2023-05-14T13:46:09.503Z,97665.91
2023-05-14T13:48:37.958Z,97667.45
2023-05-14T13:51:06.220Z,97663.01
2023-05-14T13:53:34.332Z,97656.28
2023-05-14T13:56:02.602Z,97649.93
2023-05-14T13:58:30.926Z,97646.79
2023-05-14T14:00:59.270Z,97635.71
2023-05-14T14:03:27.526Z,97630.02
2023-05-14T14:05:55.932Z,97629.67
2023-05-14T14:08:24.696Z,97626.48
2023-05-14T14:10:55.704Z,97617.64
2023-05-14T14:13:24.623Z,97607.87
2023-05-14T14:15:53.068Z,97595.61
2023-05-14T14:18:21.445Z,97586.98
2023-05-14T14:20:49.864Z,97584.27
2023-05-14T14:23:18.413Z,97585.21
2023-05-14T14:25:46.687Z,97589.80
2023-05-14T14:28:15.184Z,97589.08
2023-05-14T14:30:44.122Z,97578.89
2023-05-14T14:33:12.800Z,97574.84
2023-05-14T14:35:40.941Z,97577.80
2023-05-14T14:38:09.657Z,97578.03
2023-05-14T14:40:38.115Z,97579.41
2023-05-14T14:43:06.841Z,97583.71
2023-05-14T14:45:35.523Z,97582.38
2023-05-14T14:48:27.212Z,97583.93
2023-05-14T14:50:55.993Z,97585.08
2023-05-14T14:53:25.041Z,97584.74
2023-05-14T14:55:53.511Z,97583.36
2023-05-14T14:58:21.850Z,97580.27
2023-05-14T15:00:57.649Z,97581.35
2023-05-14T15:03:26.269Z,97584.14
2023-05-14T15:05:54.854Z,97591.77
2023-05-14T15:08:28.434Z,97594.25
2023-05-14T15:10:57.750Z,97588.20
2023-05-14T15:13:27.170Z,97582.95
2023-05-14T15:15:55.366Z,97566.65
2023-05-14T15:18:23.623Z,97556.60
2023-05-14T15:20:52.942Z,97543.98
2023-05-14T15:23:21.483Z,97541.77
2023-05-14T15:25:50.152Z,97550.55
2023-05-14T15:28:18.475Z,97547.17
2023-05-14T15:30:48.637Z,97547.44
2023-05-14T15:33:19.649Z,97556.11
2023-05-14T15:35:48.372Z,97559.17
2023-05-14T15:38:17.461Z,97550.38
2023-05-14T15:40:46.054Z,97544.34
2023-05-14T15:43:14.452Z,97539.42
2023-05-14T15:45:45.994Z,97531.59
2023-05-14T15:48:14.234Z,97527.37
2023-05-14T15:50:42.653Z,97539.30
2023-05-14T15:53:11.126Z,97542.35
2023-05-14T15:55:39.465Z,97542.13
2023-05-14T15:58:07.856Z,97540.17
2023-05-14T16:00:36.059Z,97532.23
2023-05-14T16:03:05.090Z,97518.82
2023-05-14T16:05:33.355Z,97507.09
2023-05-14T16:08:01.598Z,97504.25
2023-05-14T16:10:30.664Z,97509.04
2023-05-14T16:12:59.726Z,97516.01
2023-05-14T16:15:28.515Z,97528.48
2023-05-14T16:17:57.074Z,97529.55
2023-05-14T16:20:25.576Z,97527.87
2023-05-14T16:22:53.891Z,97527.91
2023-05-14T16:25:22.352Z,97525.05
2023-05-14T16:27:50.437Z,97521.58
2023-05-14T16:30:18.555Z,97518.74
2023-05-14T16:32:49.830Z,97515.80
2023-05-14T16:35:18.261Z,97515.45
2023-05-14T16:37:46.684Z,97522.42
2023-05-14T16:40:16.388Z,97521.64
2023-05-14T16:42:46.060Z,97518.15
2023-05-14T16:45:16.430Z,97517.25
2023-05-14T16:47:44.762Z,97524.36
2023-05-14T16:50:12.947Z,97531.21
2023-05-14T16:52:41.017Z,97531.84
2023-05-14T16:55:09.616Z,97533.98
2023-05-14T16:57:37.737Z,97535.92
2023-05-14T17:00:06.785Z,97532.27
2023-05-14T17:02:35.218Z,97529.11
2023-05-14T17:05:04.186Z,97524.51
2023-05-14T17:07:32.322Z,97531.23
2023-05-14T17:10:00.809Z,97530.38
2023-05-14T17:12:29.126Z,97523.17
2023-05-14T17:14:57.548Z,97516.91
2023-05-14T17:17:25.913Z,97515.10
2023-05-14T17:19:53.955Z,97512.35
2023-05-14T17:22:22.531Z,97516.83
2023-05-14T17:24:50.782Z,97520.65
2023-05-14T17:27:19.208Z,97515.80
2023-05-14T17:29:51.208Z,97511.48
2023-05-14T17:32:19.978Z,97500.87
2023-05-14T17:34:48.126Z,97497.10
2023-05-14T17:37:17.802Z,97496.73
2023-05-14T17:39:47.955Z,97491.57
2023-05-14T17:42:17.284Z,97491.20
2023-05-14T17:44:45.867Z,97493.61
2023-05-14T17:47:14.412Z,97493.35
2023-05-14T17:49:42.764Z,97487.47
2023-05-14T17:52:10.729Z,97490.24
2023-05-14T17:54:38.834Z,97500.92
2023-05-14T17:57:07.243Z,97505.39
2023-05-14T17:59:35.917Z,97507.45
2023-05-14T18:02:05.864Z,97511.09
2023-05-14T18:04:34.415Z,97514.02
2023-05-14T18:07:03.381Z,97515.64
2023-05-14T18:09:32.002Z,97516.20
2023-05-14T18:12:01.383Z,97517.48
2023-05-14T18:14:30.523Z,97517.38
2023-05-14T18:16:58.604Z,97516.63
2023-05-14T18:19:27.004Z,97516.51
2023-05-14T18:21:55.746Z,97515.61
2023-05-14T18:24:23.929Z,97517.19
2023-05-14T18:26:52.274Z,97513.67
2023-05-14T18:29:20.591Z,97514.14
2023-05-14T18:31:48.931Z,97515.79
2023-05-14T18:34:17.858Z,97515.60
2023-05-14T18:36:46.579Z,97513.77
2023-05-14T18:39:14.848Z,97509.73
2023-05-14T18:41:42.952Z,97511.85
2023-05-14T18:44:11.118Z,97515.56
2023-05-14T18:46:39.458Z,97514.20
2023-05-14T18:49:07.907Z,97517.52
2023-05-14T18:51:36.148Z,97518.49
2023-05-14T18:54:04.329Z,97515.98
2023-05-14T18:56:32.605Z,97512.61
2023-05-14T18:59:00.665Z,97505.70
2023-05-14T19:01:29.185Z,97500.57
2023-05-14T19:03:57.393Z,97501.40
2023-05-14T19:06:25.877Z,97500.92
2023-05-14T19:08:54.365Z,97502.21
2023-05-14T19:11:22.729Z,97501.56
2023-05-14T19:13:50.807Z,97502.30
2023-05-14T19:16:19.275Z,97499.59
2023-05-14T19:18:47.539Z,97494.59
2023-05-14T19:21:16.195Z,97491.08
2023-05-14T19:23:44.292Z,97485.11
2023-05-14T19:26:12.689Z,97484.39
2023-05-14T19:28:40.752Z,97483.38
2023-05-14T19:31:08.962Z,97481.63
2023-05-14T19:33:37.347Z,97484.11
2023-05-14T19:36:05.647Z,97484.13
2023-05-14T19:38:33.829Z,97479.09
2023-05-14T19:41:01.857Z,97477.56
2023-05-14T19:43:29.818Z,97472.77
2023-05-14T19:45:59.937Z,97467.93
2023-05-14T19:48:29.445Z,97469.23
2023-05-14T19:50:58.082Z,97475.54
2023-05-14T19:53:29.812Z,97479.70
2023-05-14T19:55:58.831Z,97479.65
2023-05-14T19:58:26.944Z,97485.79
2023-05-14T20:00:57.629Z,97482.79
2023-05-14T20:03:26.576Z,97472.84
2023-05-14T20:05:55.917Z,97462.80
2023-05-14T20:08:25.067Z,97454.66
2023-05-14T20:10:53.213Z,97451.56
2023-05-14T20:13:23.145Z,97449.31
2023-05-14T20:15:52.874Z,97449.20
2023-05-14T20:18:20.954Z,97449.48
2023-05-14T20:20:49.418Z,97443.91
2023-05-14T20:23:18.751Z,97434.56
2023-05-14T20:25:47.994Z,97428.71
2023-05-14T20:28:16.107Z,97428.01
2023-05-14T20:30:44.226Z,97421.90
2023-05-14T20:33:13.543Z,97420.66
2023-05-14T20:35:44.280Z,97423.67
2023-05-14T20:38:13.523Z,97419.77
2023-05-14T20:40:41.799Z,97419.73
2023-05-14T20:43:10.274Z,97421.21
2023-05-14T20:45:39.514Z,97422.02
2023-05-14T20:48:10.676Z,97423.55
2023-05-14T20:50:38.875Z,97427.27
2023-05-14T20:53:07.128Z,97422.28
2023-05-14T20:55:35.388Z,97411.69
2023-05-14T20:58:04.377Z,97403.81
2023-05-14T21:00:32.857Z,97399.49
2023-05-14T21:03:01.246Z,97400.67
2023-05-14T21:05:30.449Z,97402.08
2023-05-14T21:07:58.644Z,97417.15
2023-05-14T21:10:26.864Z,97425.36
2023-05-14T21:12:55.234Z,97417.92
2023-05-14T21:15:23.678Z,97408.08
2023-05-14T21:17:51.981Z,97408.97
2023-05-14T21:20:20.080Z,97412.75
2023-05-14T21:22:48.132Z,97419.69
2023-05-14T21:25:16.338Z,97419.21
2023-05-14T21:27:44.377Z,97415.06
2023-05-14T21:30:13.153Z,97405.59
2023-05-14T21:32:41.527Z,97392.55
2023-05-14T21:35:09.957Z,97386.05
2023-05-14T21:37:39.898Z,97388.19
2023-05-14T21:40:15.198Z,97401.64
2023-05-14T21:42:43.446Z,97418.86
2023-05-14T21:45:11.974Z,97423.41
2023-05-14T21:47:40.521Z,97422.19
2023-05-14T21:50:09.179Z,97417.13
2023-05-14T21:52:38.345Z,97408.02
2023-05-14T21:55:06.770Z,97400.12
2023-05-14T21:57:35.026Z,97394.02
2023-05-14T22:00:07.988Z,97396.55
2023-05-14T22:02:36.268Z,97398.91
2023-05-14T22:05:05.422Z,97400.73
2023-05-14T22:07:33.679Z,97402.23
2023-05-14T22:10:02.573Z,97396.14
2023-05-14T22:12:30.653Z,97387.40
2023-05-14T22:14:58.726Z,97388.18
2023-05-14T22:17:28.411Z,97387.55
2023-05-14T22:19:57.021Z,97386.20
2023-05-14T22:22:25.425Z,97379.71
2023-05-14T22:24:53.861Z,97380.98
2023-05-14T22:27:22.491Z,97385.23
2023-05-14T22:29:50.749Z,97382.10
2023-05-14T22:32:18.770Z,97380.03
2023-05-14T22:34:46.927Z,97379.85
2023-05-14T22:37:15.846Z,97382.70
2023-05-14T22:39:44.062Z,97382.02
2023-05-14T22:42:12.230Z,97380.48
2023-05-14T22:44:40.455Z,97371.06
2023-05-14T22:47:08.591Z,97367.23
2023-05-14T22:49:36.762Z,97364.46
2023-05-14T22:52:05.898Z,97367.69
2023-05-14T22:54:34.241Z,97368.42
2023-05-14T22:57:03.488Z,97369.36
2023-05-14T22:59:31.852Z,97366.81
2023-05-14T23:02:00.087Z,97361.84
2023-05-14T23:04:28.713Z,97360.52
2023-05-14T23:06:58.265Z,97355.47
2023-05-14T23:09:26.564Z,97352.22
2023-05-14T23:11:55.165Z,97352.98
2023-05-14T23:14:23.387Z,97347.98
2023-05-14T23:16:52.171Z,97340.10
2023-05-14T23:19:22.136Z,97336.66
2023-05-14T23:21:51.092Z,97333.58
2023-05-14T23:24:20.087Z,97333.17
2023-05-14T23:26:48.380Z,97328.40
2023-05-14T23:29:16.631Z,97322.16
2023-05-14T23:31:44.764Z,97324.04
2023-05-14T23:34:12.986Z,97327.67
2023-05-14T23:36:41.425Z,97325.34
2023-05-14T23:39:10.357Z,97321.56
2023-05-14T23:41:38.815Z,97323.19
2023-05-14T23:44:07.583Z,97318.50
2023-05-14T23:46:36.190Z,97314.11
2023-05-14T23:49:05.419Z,97307.75
2023-05-14T23:51:33.926Z,97304.35
2023-05-14T23:54:02.152Z,97300.03
2023-05-14T23:56:30.787Z,97295.79
2023-05-14T23:58:58.966Z,97296.51
